| time (UTC) | temp F | wind direction | speed knots | gust knots | rain 1hr in | rain 24hr in | rain mn in | humidity % | barometer mb |
| 20260506023122 | 62 | 116 | 3.5 | 11.3 | 0.00 | 0.00 | 0.00 | 71 | 1013.8 |
| 20260506022122 | 62 | 97 | 2.6 | 12.2 | 0.00 | 0.00 | 0.00 | 71 | 1013.8 |
| 20260506021124 | 62 | 107 | 5.2 | 15.6 | 0.00 | 0.00 | 0.00 | 71 | 1013.7 |
| 20260506020143 | 62 | 128 | 3.5 | 11.3 | 0.00 | 0.00 | 0.00 | 71 | 1013.8 |
| 20260506015122 | 63 | 107 | 5.2 | 13.9 | 0.00 | 0.00 | 0.00 | 70 | 1013.8 |
| 20260506014122 | 63 | 142 | 3.5 | 12.2 | 0.00 | 0.00 | 0.00 | 70 | 1013.7 |
| 20260506013143 | 63 | 127 | 2.6 | 15.6 | 0.00 | 0.00 | 0.00 | 69 | 1013.8 |
| 20260506012123 | 63 | 144 | 2.6 | 9.6 | 0.00 | 0.00 | 0.00 | 69 | 1013.9 |
| 20260506011122 | 64 | 121 | 3.5 | 12.2 | 0.00 | 0.00 | 0.00 | 69 | 1013.8 |
| 20260506010122 | 64 | 133 | 3.5 | 15.6 | 0.00 | 0.00 | 0.00 | 68 | 1013.9 |
| 20260506005122 | 64 | 127 | 3.5 | 13.9 | 0.00 | 0.00 | 0.00 | 67 | 1014.0 |
| 20260506004122 | 65 | 144 | 2.6 | 9.6 | 0.00 | 0.00 | 0.00 | 67 | 1014.0 |
| 20260506003122 | 65 | 154 | 3.5 | 12.2 | 0.00 | 0.00 | 0.00 | 67 | 1013.9 |
| 20260506002122 | 65 | 137 | 3.5 | 12.2 | 0.00 | 0.00 | 0.00 | 67 | 1013.9 |
| 20260506001122 | 65 | 141 | 3.5 | 13.9 | 0.00 | 0.00 | 0.00 | 65 | 1014.1 |
| 20260506000122 | 66 | 173 | 3.5 | 15.6 | 0.00 | 0.00 | 0.00 | 66 | 1014.0 |
| 20260505235122 | 67 | 115 | 3.5 | 12.2 | 0.00 | 0.00 | 0.00 | 64 | 1014.2 |
| 20260505234122 | 66 | 105 | 4.3 | 16.5 | 0.00 | 0.00 | 0.00 | 64 | 1014.2 |
| 20260505233123 | 66 | 113 | 3.5 | 13.9 | 0.00 | 0.00 | 0.00 | 65 | 1014.2 |
| 20260505232143 | 67 | 117 | 4.3 | 13.9 | 0.00 | 0.00 | 0.00 | 63 | 1014.4 |
| 20260505231123 | 67 | 135 | 3.5 | 11.3 | 0.00 | 0.00 | 0.00 | 64 | 1014.5 |
| 20260505230122 | 67 | 120 | 2.6 | 11.3 | 0.00 | 0.00 | 0.00 | 63 | 1014.6 |
| 20260505225122 | 66 | 144 | 3.5 | 12.2 | 0.00 | 0.00 | 0.00 | 65 | 1014.6 |
| 20260505224122 | 66 | 179 | 4.3 | 12.2 | 0.00 | 0.00 | 0.00 | 64 | 1014.7 |
| 20260505223143 | 67 | 97 | 5.2 | 13.9 | 0.00 | 0.00 | 0.00 | 63 | 1014.8 |
| 20260505222122 | 66 | 156 | 3.5 | 13.9 | 0.00 | 0.00 | 0.00 | 64 | 1014.8 |
| 20260505221143 | 67 | 151 | 3.5 | 12.2 | 0.00 | 0.00 | 0.00 | 64 | 1014.9 |
| 20260505220122 | 67 | 116 | 4.3 | 12.2 | 0.00 | 0.00 | 0.00 | 65 | 1015.0 |
| 20260505215122 | 68 | 107 | 2.6 | 12.2 | 0.00 | 0.00 | 0.00 | 64 | 1014.9 |
| 20260505214122 | 66 | 127 | 2.6 | 9.6 | 0.00 | 0.00 | 0.00 | 64 | 1015.0 |
| 20260505213123 | 66 | 149 | 3.5 | 11.3 | 0.00 | 0.00 | 0.00 | 64 | 1015.1 |
| 20260505212122 | 67 | 124 | 2.6 | 11.3 | 0.00 | 0.00 | 0.00 | 62 | 1015.2 |
| 20260505211122 | 66 | 132 | 3.5 | 12.2 | 0.00 | 0.00 | 0.00 | 65 | 1015.1 |
| 20260505210122 | 66 | 104 | 3.5 | 12.2 | 0.00 | 0.00 | 0.00 | 64 | 1015.2 |
| 20260505205122 | 65 | 119 | 3.5 | 11.3 | 0.00 | 0.00 | 0.00 | 65 | 1015.3 |
| 20260505204122 | 65 | 137 | 2.6 | 12.2 | 0.00 | 0.00 | 0.00 | 66 | 1015.4 |
| 20260505203123 | 64 | 118 | 5.2 | 15.6 | 0.00 | 0.00 | 0.00 | 66 | 1015.4 |
| 20260505202122 | 65 | 101 | 3.5 | 12.2 | 0.00 | 0.00 | 0.00 | 66 | 1015.4 |
| 20260505201122 | 65 | 139 | 3.5 | 11.3 | 0.00 | 0.00 | 0.00 | 68 | 1015.5 |
| 20260505200122 | 64 | 168 | 3.5 | 11.3 | 0.00 | 0.00 | 0.00 | 67 | 1015.5 |
| 20260505195122 | 64 | 149 | 4.3 | 15.6 | 0.00 | 0.00 | 0.00 | 67 | 1015.6 |
| 20260505194123 | 64 | 138 | 2.6 | 9.6 | 0.00 | 0.00 | 0.00 | 67 | 1015.6 |
| 20260505193144 | 64 | 175 | 3.5 | 12.2 | 0.00 | 0.00 | 0.00 | 66 | 1015.4 |
| 20260505192122 | 64 | 166 | 3.5 | 9.6 | 0.00 | 0.00 | 0.00 | 68 | 1015.4 |
| 20260505191123 | 63 | 108 | 4.3 | 12.2 | 0.00 | 0.00 | 0.00 | 70 | 1015.6 |
| 20260505190123 | 62 | 122 | 4.3 | 12.2 | 0.00 | 0.00 | 0.00 | 71 | 1015.6 |
| 20260505185122 | 63 | 113 | 3.5 | 12.2 | 0.00 | 0.00 | 0.00 | 72 | 1015.7 |
| 20260505184122 | 62 | 130 | 4.3 | 15.6 | 0.00 | 0.00 | 0.00 | 73 | 1015.7 |
| 20260505183124 | 62 | 169 | 3.5 | 12.2 | 0.00 | 0.00 | 0.00 | 73 | 1015.7 |
| 20260505182124 | 62 | 151 | 2.6 | 9.6 | 0.00 | 0.00 | 0.00 | 75 | 1015.6 |
| 20260505181123 | 60 | 165 | 3.5 | 13.9 | 0.00 | 0.00 | 0.00 | 76 | 1015.6 |
| 20260505180123 | 60 | 109 | 5.2 | 15.6 | 0.00 | 0.00 | 0.00 | 77 | 1015.7 |
| 20260505175123 | 59 | 165 | 3.5 | 16.5 | 0.00 | 0.00 | 0.00 | 78 | 1015.6 |
| 20260505174122 | 59 | 116 | 4.3 | 16.5 | 0.00 | 0.00 | 0.00 | 78 | 1015.7 |
| 20260505173143 | 60 | 132 | 3.5 | 15.6 | 0.00 | 0.00 | 0.00 | 79 | 1015.6 |
| 20260505172123 | 59 | 144 | 4.3 | 13.9 | 0.00 | 0.00 | 0.00 | 79 | 1015.6 |
| 20260505171122 | 59 | 146 | 4.3 | 15.6 | 0.00 | 0.00 | 0.00 | 81 | 1015.6 |
| 20260505170123 | 58 | 152 | 4.3 | 12.2 | 0.00 | 0.00 | 0.00 | 81 | 1015.6 |
| 20260505165122 | 57 | 152 | 4.3 | 15.6 | 0.00 | 0.00 | 0.00 | 81 | 1015.7 |
| 20260505164122 | 57 | 120 | 4.3 | 13.9 | 0.00 | 0.00 | 0.00 | 80 | 1015.5 |
| 20260505163122 | 58 | 108 | 4.3 | 15.6 | 0.00 | 0.00 | 0.00 | 80 | 1015.4 |
| 20260505162122 | 58 | 130 | 3.5 | 12.2 | 0.00 | 0.00 | 0.00 | 79 | 1015.5 |
| 20260505161122 | 58 | 116 | 3.5 | 12.2 | 0.00 | 0.00 | 0.00 | 80 | 1015.4 |
| 20260505160122 | 58 | 119 | 4.3 | 12.2 | 0.00 | 0.00 | 0.00 | 79 | 1015.3 |
| 20260505153122 | 58 | 105 | 5.2 | 13.9 | 0.00 | 0.00 | 0.00 | 78 | 1015.0 |
| 20260505152122 | 58 | 134 | 3.5 | 13.9 | 0.00 | 0.00 | 0.00 | 78 | 1015.0 |
| 20260505151123 | 58 | 104 | 6.1 | 15.6 | 0.00 | 0.00 | 0.00 | 79 | 1014.9 |
| 20260505150122 | 58 | 101 | 5.2 | 18.2 | 0.00 | 0.00 | 0.00 | 78 | 1014.8 |
| 20260505140122 | 58 | 106 | 4.3 | 13.9 | 0.00 | 0.00 | 0.00 | 76 | 1014.0 |
| 20260505130122 | 57 | 91 | 3.5 | 12.2 | 0.00 | 0.00 | 0.00 | 76 | 1013.4 |
| 20260505124143 | 57 | 86 | 2.6 | 12.2 | 0.00 | 0.00 | 0.00 | 76 | 1013.1 |
| 20260505123143 | 57 | 83 | 2.6 | 8.7 | 0.00 | 0.00 | 0.00 | 75 | 1013.0 |
| 20260505122122 | 57 | 92 | 3.5 | 9.6 | 0.00 | 0.00 | 0.00 | 75 | 1012.9 |
| 20260505121122 | 57 | 94 | 3.5 | 11.3 | 0.00 | 0.00 | 0.00 | 75 | 1012.9 |
| 20260505120122 | 57 | 87 | 2.6 | 8.7 | 0.00 | 0.00 | 0.00 | 75 | 1012.8 |
| 20260505115122 | 57 | 86 | 1.7 | 4.3 | 0.00 | 0.00 | 0.00 | 75 | 1012.7 |
| 20260505114144 | 57 | 84 | 2.6 | 8.7 | 0.00 | 0.00 | 0.00 | 74 | 1012.7 |
| 20260505113122 | 57 | 79 | 1.7 | 5.2 | 0.00 | 0.00 | 0.00 | 73 | 1012.7 |
| 20260505112123 | 58 | 90 | 1.7 | 5.2 | 0.00 | 0.00 | 0.00 | 73 | 1012.5 |
| 20260505111122 | 58 | 80 | 1.7 | 5.2 | 0.00 | 0.00 | 0.00 | 73 | 1012.4 |
| 20260505110122 | 58 | 84 | 1.7 | 5.2 | 0.00 | 0.00 | 0.00 | 72 | 1012.2 |
| 20260505102122 | 59 | 107 | 1.7 | 5.2 | 0.00 | 0.00 | 0.00 | 71 | 1011.7 |
| 20260505101122 | 59 | 100 | 1.7 | 5.2 | 0.00 | 0.00 | 0.00 | 71 | 1011.6 |
| 20260505100122 | 59 | 106 | 2.6 | 9.6 | 0.00 | 0.00 | 0.00 | 72 | 1011.4 |
| 20260505095122 | 59 | 97 | 4.3 | 11.3 | 0.00 | 0.00 | 0.00 | 74 | 1011.3 |
| 20260505094123 | 59 | 104 | 3.5 | 9.6 | 0.00 | 0.00 | 0.00 | 76 | 1011.2 |
| 20260505093122 | 59 | 98 | 4.3 | 12.2 | 0.00 | 0.00 | 0.00 | 78 | 1011.0 |
| 20260505092122 | 59 | 103 | 1.7 | 8.7 | 0.00 | 0.00 | 0.00 | 79 | 1011.0 |
| 20260505091122 | 59 | 121 | 1.7 | 5.2 | 0.00 | 0.00 | 0.00 | 78 | 1010.9 |
| 20260505090122 | 60 | 112 | 1.7 | 8.7 | 0.00 | 0.00 | 0.00 | 78 | 1010.8 |
| 20260505085122 | 60 | 97 | 1.7 | 5.2 | 0.00 | 0.00 | 0.00 | 77 | 1010.7 |
| 20260505084123 | 60 | 109 | 0.0 | 2.6 | 0.00 | 0.00 | 0.00 | 76 | 1010.6 |
| 20260505083122 | 61 | 113 | 0.9 | 4.3 | 0.00 | 0.00 | 0.00 | 76 | 1010.5 |
| 20260505082123 | 61 | 132 | 0.0 | 1.7 | 0.00 | 0.00 | 0.00 | 76 | 1010.4 |
| 20260505081122 | 61 | 133 | 0.0 | 2.6 | 0.00 | 0.00 | 0.00 | 76 | 1010.4 |
| 20260505080143 | 61 | 200 | 0.9 | 2.6 | 0.00 | 0.00 | 0.00 | 75 | 1010.4 |
| 20260505075122 | 62 | 173 | 0.9 | 4.3 | 0.00 | 0.00 | 0.00 | 73 | 1010.2 |
| 20260505074122 | 62 | 139 | 0.9 | 2.6 | 0.00 | 0.00 | 0.00 | 72 | 1010.3 |
| 20260505073123 | 62 | 121 | 0.0 | 2.6 | 0.00 | 0.00 | 0.00 | 70 | 1010.1 |
| 20260505072123 | 62 | 120 | 0.0 | 0.0 | 0.00 | 0.00 | 0.00 | 70 | 1010.0 |
| 20260505071144 | 63 | 123 | 0.0 | 0.0 | 0.00 | 0.00 | 0.00 | 69 | 1009.8 |
| 20260505065143 | 64 | 120 | 0.0 | 0.0 | 0.00 | 0.00 | 0.00 | 66 | 1009.6 |
| 20260505064122 | 64 | 108 | 0.0 | 0.0 | 0.00 | 0.00 | 0.00 | 66 | 1009.6 |
| 20260505063122 | 64 | 112 | 0.0 | 0.0 | 0.00 | 0.00 | 0.00 | 66 | 1009.3 |
| 20260505062144 | 65 | 110 | 0.0 | 0.0 | 0.00 | 0.00 | 0.00 | 65 | 1009.2 |
| 20260505061122 | 65 | 103 | 0.0 | 2.6 | 0.00 | 0.00 | 0.00 | 64 | 1009.1 |
| 20260505060122 | 66 | 103 | 0.0 | 2.6 | 0.00 | 0.00 | 0.00 | 63 | 1009.1 |
| 20260505055122 | 67 | 100 | 0.9 | 4.3 | 0.00 | 0.00 | 0.00 | 60 | 1009.1 |
| 20260505054122 | 68 | 103 | 0.0 | 2.6 | 0.00 | 0.00 | 0.00 | 57 | 1009.1 |
| 20260505053122 | 68 | 76 | 1.7 | 4.3 | 0.00 | 0.00 | 0.00 | 55 | 1009.0 |
| 20260505052123 | 68 | 88 | 1.7 | 4.3 | 0.00 | 0.00 | 0.00 | 56 | 1009.0 |
| 20260505051123 | 67 | 101 | 1.7 | 5.2 | 0.00 | 0.00 | 0.00 | 60 | 1008.9 |
| 20260505050122 | 67 | 287 | 0.0 | 0.0 | 0.00 | 0.00 | 0.00 | 63 | 1008.8 |
| 20260505041122 | 69 | 287 | 0.0 | 0.0 | 0.00 | 0.00 | 0.00 | 58 | 1008.4 |
| 20260505040124 | 70 | 285 | 0.0 | 0.0 | 0.00 | 0.00 | 0.00 | 56 | 1008.3 |
| 20260505035122 | 70 | 283 | 0.0 | 0.0 | 0.00 | 0.00 | 0.00 | 55 | 1008.3 |
| 20260505034144 | 71 | 359 | 0.0 | 0.0 | 0.00 | 0.00 | 0.00 | 53 | 1008.2 |
| 20260505033122 | 71 | 359 | 0.0 | 0.0 | 0.00 | 0.00 | 0.00 | 52 | 1008.1 |
| 20260505032122 | 72 | 287 | 0.0 | 0.0 | 0.00 | 0.00 | 0.00 | 51 | 1008.0 |
| 20260505031122 | 73 | 287 | 0.0 | 0.0 | 0.00 | 0.00 | 0.00 | 48 | 1008.0 |
| 20260505030122 | 74 | 284 | 0.0 | 0.0 | 0.00 | 0.00 | 0.00 | 48 | 1008.0 |
| 20260505025122 | 74 | 284 | 0.0 | 0.0 | 0.00 | 0.00 | 0.00 | 45 | 1007.9 |
| 20260505024122 | 74 | 288 | 0.0 | 0.0 | 0.00 | 0.00 | 0.00 | 45 | 1007.9 |